Time;durP1;ratioP1;P1;durP2;ratioP2;P2;SDS_P1;SDS_P2;PMS_P1;PMS_P2;Temp;Humidity;BMP_temperature;BMP_pressure;BME280_temperature;BME280_humidity;BME280_pressure;Samples;Min_cycle;Max_cycle;Signal;HPM_P1;HPM_P2
2023/05/17 00:00:13;;;;;;;9.87;6.00;;;;;;;16.76;96.85;94279.22;4996981;28;20439;-85
2023/05/17 00:02:40;;;;;;;13.50;6.77;;;;;;;16.79;97.46;94278.88;5015142;28;20486;-85
2023/05/17 00:05:08;;;;;;;8.73;6.70;;;;;;;16.80;97.92;94285.81;4997453;28;20444;-85
2023/05/17 00:07:36;;;;;;;10.80;5.20;;;;;;;16.83;97.90;94283.63;5015777;28;20432;-85
2023/05/17 00:10:03;;;;;;;13.47;6.40;;;;;;;16.81;97.83;94282.16;5015316;28;20435;-85
2023/05/17 00:12:30;;;;;;;9.40;6.00;;;;;;;16.76;98.65;94265.97;5015062;28;20508;-83
2023/05/17 00:14:56;;;;;;;9.60;6.00;;;;;;;16.79;97.95;94273.56;4997121;28;20444;-82
2023/05/17 00:17:23;;;;;;;14.53;6.33;;;;;;;16.80;98.08;94264.63;4996841;28;20992;-83
2023/05/17 00:19:50;;;;;;;14.70;6.53;;;;;;;16.80;97.92;94264.63;5014713;28;20505;-83
2023/05/17 00:22:16;;;;;;;12.17;6.90;;;;;;;16.80;97.83;94259.31;5014721;28;20454;-83
2023/05/17 00:24:45;;;;;;;17.83;6.70;;;;;;;16.77;97.97;94265.81;5014357;28;20463;-83
2023/05/17 00:27:11;;;;;;;12.43;5.80;;;;;;;16.77;98.75;94279.06;4996608;28;20450;-83
2023/05/17 00:29:38;;;;;;;15.40;5.90;;;;;;;16.75;98.25;94275.72;4996633;28;20498;-83
2023/05/17 00:32:06;;;;;;;13.83;6.67;;;;;;;16.72;97.35;94278.75;5014667;28;20443;-83
2023/05/17 00:34:32;;;;;;;9.33;5.70;;;;;;;16.63;97.64;94275.34;5014756;28;20431;-82
2023/05/17 00:36:59;;;;;;;9.93;6.10;;;;;;;16.61;97.72;94277.34;5014715;28;20483;-83
2023/05/17 00:39:26;;;;;;;7.70;5.80;;;;;;;16.58;98.08;94282.19;5014333;28;20485;-83
2023/05/17 00:41:54;;;;;;;7.10;5.40;;;;;;;16.56;98.56;94278.91;5014750;28;20447;-85
2023/05/17 00:44:20;;;;;;;11.73;6.80;;;;;;;16.52;98.55;94286.41;5014639;28;20835;-85
2023/05/17 00:46:49;;;;;;;5.93;5.40;;;;;;;16.50;98.92;94279.66;5014318;28;20443;-85
2023/05/17 00:49:16;;;;;;;10.87;5.50;;;;;;;16.44;98.12;94278.50;5014556;28;20436;-85
2023/05/17 00:51:43;;;;;;;9.00;7.13;;;;;;;16.41;98.70;94281.53;5015098;28;20837;-85
2023/05/17 00:54:10;;;;;;;17.60;6.10;;;;;;;16.39;99.14;94291.47;5014012;28;20521;-85
2023/05/17 00:56:38;;;;;;;12.37;5.57;;;;;;;16.30;99.42;94289.91;5014481;28;20480;-85
2023/05/17 01:05:50;;;;;;;8.80;5.37;;;;;;;16.15;99.44;94289.03;4993249;28;20445;-85
2023/05/17 01:08:17;;;;;;;11.93;5.30;;;;;;;16.11;99.78;94286.75;4992705;28;20511;-85
2023/05/17 01:10:53;;;;;;;10.13;4.37;;;;;;;16.10;99.31;94285.13;4994509;28;20445;-85
2023/05/17 01:13:27;;;;;;;6.10;5.50;;;;;;;16.01;98.53;94288.03;4977112;28;20495;-84
2023/05/17 01:16:02;;;;;;;14.17;5.40;;;;;;;15.95;99.47;94278.97;4977047;28;20872;-85
2023/05/17 01:18:38;;;;;;;10.63;6.10;;;;;;;15.96;99.88;94283.25;4994181;28;20976;-85
2023/05/17 01:21:17;;;;;;;10.60;6.03;;;;;;;15.94;100.00;94292.38;4994425;28;20496;-85
2023/05/17 01:27:09;;;;;;;11.77;6.07;;;;;;;15.86;99.25;94279.19;4993513;28;20481;-85
2023/05/17 01:29:38;;;;;;;6.10;4.50;;;;;;;15.85;98.67;94280.19;4992712;28;20432;-84
2023/05/17 01:32:06;;;;;;;12.93;5.50;;;;;;;15.83;99.12;94287.47;4994349;28;20446;-85
2023/05/17 01:34:35;;;;;;;14.50;6.13;;;;;;;15.84;98.82;94295.25;4992316;28;20490;-85
2023/05/17 01:37:01;;;;;;;14.63;5.70;;;;;;;15.82;99.25;94293.78;4993793;28;20449;-85
2023/05/17 01:39:28;;;;;;;21.40;5.70;;;;;;;15.73;99.05;94282.44;4994207;28;20941;-85
2023/05/17 01:42:00;;;;;;;6.90;4.90;;;;;;;15.74;99.26;94281.44;4993949;28;20794;-85
2023/05/17 01:44:36;;;;;;;12.17;5.17;;;;;;;15.76;100.00;94288.19;4994278;28;20439;-85
2023/05/17 01:47:11;;;;;;;12.30;6.23;;;;;;;15.77;100.00;94279.25;4994252;28;20480;-84
2023/05/17 01:49:40;;;;;;;16.33;6.03;;;;;;;15.73;100.00;94271.84;4994078;28;20434;-83
2023/05/17 01:52:11;;;;;;;16.93;8.53;;;;;;;15.79;99.79;94281.72;4995783;28;20808;-82
2023/05/17 01:54:47;;;;;;;17.03;5.83;;;;;;;15.83;99.51;94283.00;4995687;28;20493;-82
2023/05/17 01:57:15;;;;;;;8.67;6.30;;;;;;;15.82;99.04;94270.78;4995242;28;20856;-83
2023/05/17 01:59:45;;;;;;;14.00;6.30;;;;;;;15.80;99.30;94268.31;4996313;28;20467;-83
2023/05/17 02:02:12;;;;;;;11.07;6.90;;;;;;;15.82;98.93;94276.09;4996278;28;20436;-83
2023/05/17 02:04:39;;;;;;;17.27;7.40;;;;;;;15.82;99.06;94281.38;4995726;28;20455;-83
2023/05/17 02:07:06;;;;;;;10.93;6.53;;;;;;;15.81;98.79;94279.72;4995178;28;20444;-83
2023/05/17 02:09:33;;;;;;;11.60;7.30;;;;;;;15.74;98.94;94278.78;4994854;28;20448;-83
2023/05/17 02:11:59;;;;;;;12.97;6.27;;;;;;;15.56;99.20;94278.22;4995838;28;20940;-82
2023/05/17 02:14:26;;;;;;;8.00;5.83;;;;;;;15.56;99.21;94279.03;4995697;28;20831;-82
2023/05/17 02:16:54;;;;;;;10.60;5.87;;;;;;;15.59;99.20;94270.78;4995327;28;20950;-83
2023/05/17 02:19:21;;;;;;;21.17;6.77;;;;;;;15.55;98.96;94258.88;4994728;28;20446;-83
2023/05/17 02:21:48;;;;;;;12.50;6.67;;;;;;;15.62;99.02;94264.34;4993781;28;20445;-83
2023/05/17 02:24:14;;;;;;;11.87;7.30;;;;;;;15.62;98.86;94273.09;4994362;28;20439;-83
2023/05/17 02:26:42;;;;;;;10.63;7.20;;;;;;;15.61;99.01;94270.59;4993830;28;20443;-83
2023/05/17 02:29:09;;;;;;;17.43;8.17;;;;;;;15.60;99.09;94261.03;4994521;28;20944;-83
2023/05/17 02:31:36;;;;;;;10.73;8.40;;;;;;;15.26;100.00;94262.19;4995563;28;20503;-83
2023/05/17 02:34:04;;;;;;;23.93;8.87;;;;;;;15.27;100.00;94255.91;4994352;28;20543;-83
2023/05/17 02:36:32;;;;;;;11.53;8.60;;;;;;;15.39;100.00;94269.56;4994689;28;20474;-82
2023/05/17 02:38:58;;;;;;;12.33;8.00;;;;;;;15.42;99.61;94279.81;4994349;28;20495;-82
2023/05/17 02:41:25;;;;;;;21.20;9.30;;;;;;;15.37;99.18;94277.69;4994143;28;20440;-83
2023/05/17 02:43:52;;;;;;;12.87;9.03;;;;;;;15.39;100.00;94278.34;4994088;28;20437;-82
2023/05/17 02:46:20;;;;;;;22.03;10.30;;;;;;;15.33;100.00;94284.31;4994704;28;20460;-82
2023/05/17 02:48:47;;;;;;;21.63;11.83;;;;;;;15.10;100.00;94296.66;4996172;28;20759;-82
2023/05/17 02:51:15;;;;;;;22.07;11.20;;;;;;;15.15;100.00;94299.59;4998996;28;20456;-82
2023/05/17 02:53:42;;;;;;;16.30;11.37;;;;;;;15.27;100.00;94302.66;4997763;28;20899;-83
2023/05/17 02:56:08;;;;;;;22.07;11.53;;;;;;;15.11;100.00;94300.94;4997805;28;20560;-83
2023/05/17 02:58:35;;;;;;;17.93;13.33;;;;;;;15.05;100.00;94310.38;4998164;28;20446;-83
2023/05/17 03:01:02;;;;;;;16.10;10.30;;;;;;;15.19;100.00;94311.47;4997195;28;20499;-83
2023/05/17 03:03:28;;;;;;;19.27;11.67;;;;;;;15.27;100.00;94318.53;4997410;28;20450;-83
2023/05/17 03:05:59;;;;;;;17.47;11.77;;;;;;;15.12;100.00;94307.88;4998567;28;20451;-82
2023/05/17 03:08:27;;;;;;;20.97;12.43;;;;;;;15.26;100.00;94323.00;4964368;28;20444;-83
2023/05/17 03:10:54;;;;;;;29.93;11.47;;;;;;;15.29;100.00;94320.00;4997760;28;20443;-83
2023/05/17 03:13:21;;;;;;;12.53;10.13;;;;;;;15.25;100.00;94315.25;4998696;28;20501;-84
2023/05/17 03:19:09;;;;;;;15.00;10.60;;;;;;;14.99;100.00;94331.38;5005251;28;20454;-85
2023/05/17 03:21:36;;;;;;;14.70;10.43;;;;;;;15.03;100.00;94337.94;5016811;28;20877;-84
2023/05/17 03:24:04;;;;;;;17.80;10.40;;;;;;;15.07;100.00;94328.72;5017062;28;20444;-83
2023/05/17 03:26:32;;;;;;;16.80;10.77;;;;;;;15.08;100.00;94319.78;5015279;28;20452;-83
2023/05/17 03:28:59;;;;;;;23.80;13.03;;;;;;;15.15;100.00;94331.31;5017582;28;20453;-83
2023/05/17 03:31:26;;;;;;;20.80;13.40;;;;;;;15.19;100.00;94329.97;5017100;28;20839;-83
2023/05/17 03:33:53;;;;;;;24.23;12.33;;;;;;;15.22;100.00;94328.81;5016440;28;21251;-83
2023/05/17 03:36:20;;;;;;;18.03;12.40;;;;;;;15.14;100.00;94334.94;5014080;28;20450;-85
2023/05/17 03:42:09;;;;;;;18.63;12.03;;;;;;;15.18;100.00;94321.22;5015121;28;20954;-88
2023/05/17 03:44:36;;;;;;;18.73;12.53;;;;;;;15.31;100.00;94325.13;5016467;28;20525;-86
2023/05/17 03:47:03;;;;;;;16.40;11.30;;;;;;;15.36;100.00;94331.56;5015719;28;20860;-84
2023/05/17 03:49:29;;;;;;;20.90;11.97;;;;;;;15.39;100.00;94328.56;5015711;28;20447;-85
2023/05/17 03:51:56;;;;;;;15.50;11.33;;;;;;;15.30;100.00;94342.78;5015528;28;20438;-84
2023/05/17 03:54:23;;;;;;;22.30;12.40;;;;;;;15.22;100.00;94334.09;5015378;28;20472;-84
2023/05/17 03:56:50;;;;;;;21.60;12.80;;;;;;;15.21;100.00;94337.72;5015211;28;20454;-84
2023/05/17 03:59:18;;;;;;;25.57;11.10;;;;;;;15.36;100.00;94328.91;5015257;28;20452;-82
2023/05/17 04:01:45;;;;;;;16.07;11.53;;;;;;;16.23;100.00;94331.34;5015372;28;20443;-82
2023/05/17 04:04:12;;;;;;;13.00;11.60;;;;;;;16.92;98.74;94334.69;5015329;28;20486;-82
2023/05/17 04:06:39;;;;;;;14.00;10.47;;;;;;;17.77;94.02;94332.34;5015034;28;20945;-82
2023/05/17 04:09:07;;;;;;;13.07;11.70;;;;;;;18.52;90.23;94339.81;5015336;28;20449;-82
2023/05/17 04:11:34;;;;;;;14.63;10.17;;;;;;;19.11;86.69;94347.41;5014865;28;20454;-81
2023/05/17 04:14:00;;;;;;;13.27;10.67;;;;;;;19.57;83.81;94351.34;5014685;28;20499;-83
2023/05/17 04:16:29;;;;;;;18.97;10.80;;;;;;;20.05;80.24;94360.13;5014671;28;20451;-82
2023/05/17 04:18:55;;;;;;;29.63;12.37;;;;;;;20.59;78.24;94352.06;5015020;28;20428;-81
2023/05/17 04:21:22;;;;;;;14.03;9.77;;;;;;;20.95;75.92;94362.31;5014213;28;20467;-85
2023/05/17 04:23:49;;;;;;;14.93;10.80;;;;;;;21.22;74.87;94356.94;5014059;28;20845;-85
2023/05/17 04:26:16;;;;;;;19.20;11.77;;;;;;;21.07;74.39;94359.00;5014901;28;20444;-87
2023/05/17 04:28:43;;;;;;;30.13;12.03;;;;;;;21.09;74.79;94360.41;5014702;28;20479;-86
2023/05/17 04:31:10;;;;;;;21.33;11.70;;;;;;;21.03;74.69;94358.59;5014170;28;20453;-87
2023/05/17 04:33:38;;;;;;;24.70;12.10;;;;;;;21.17;74.97;94364.75;5014937;28;20474;-86
2023/05/17 04:36:05;;;;;;;31.43;18.67;;;;;;;21.20;74.92;94359.81;4980513;28;20449;-86
2023/05/17 04:38:32;;;;;;;53.57;31.00;;;;;;;21.14;75.62;94354.50;5014816;28;20480;-86
2023/05/17 04:41:03;;;;;;;88.90;44.47;;;;;;;21.20;75.49;94342.97;5014815;28;20446;-87
2023/05/17 04:43:31;;;;;;;37.27;21.70;;;;;;;21.20;73.66;94349.13;5014840;28;20445;-86
2023/05/17 04:45:58;;;;;;;69.67;31.80;;;;;;;21.40;74.77;94348.31;5014228;28;20433;-86
2023/05/17 04:48:25;;;;;;;55.13;30.13;;;;;;;21.66;74.04;94350.88;5014583;28;20896;-86
2023/05/17 04:50:54;;;;;;;105.40;51.33;;;;;;;21.95;72.97;94346.84;5014287;28;20463;-85
2023/05/17 04:53:20;;;;;;;94.00;52.80;;;;;;;22.16;72.83;94348.41;5014735;28;20489;-83
2023/05/17 04:55:48;;;;;;;61.37;35.40;;;;;;;22.36;70.66;94348.31;5014091;28;20450;-86
2023/05/17 04:58:14;;;;;;;25.40;20.70;;;;;;;22.61;69.86;94348.34;5014334;28;20547;-87
2023/05/17 05:00:41;;;;;;;16.33;13.00;;;;;;;22.40;66.73;94355.66;5014192;28;20447;-83
2023/05/17 05:03:08;;;;;;;22.43;12.50;;;;;;;21.98;67.07;94351.78;5014152;28;20462;-84
2023/05/17 05:05:34;;;;;;;18.47;12.27;;;;;;;21.69;70.11;94357.66;5014289;28;20458;-86
2023/05/17 05:08:03;;;;;;;12.80;11.30;;;;;;;21.73;68.98;94358.88;5014165;28;20450;-86
2023/05/17 05:10:29;;;;;;;22.23;13.77;;;;;;;21.78;66.97;94362.56;5013144;28;20451;-83
2023/05/17 05:12:56;;;;;;;25.93;13.53;;;;;;;21.67;68.61;94365.03;5014697;28;20861;-83
2023/05/17 05:15:23;;;;;;;18.37;12.27;;;;;;;21.54;76.81;94353.38;5014874;28;20574;-85
2023/05/17 05:17:50;;;;;;;12.90;10.10;;;;;;;21.61;73.40;94361.38;5013734;28;20447;-83
2023/05/17 05:20:17;;;;;;;21.50;11.83;;;;;;;21.59;68.78;94364.25;5014268;28;20881;-83
2023/05/17 05:22:44;;;;;;;19.70;11.67;;;;;;;21.37;68.64;94362.88;5013804;28;20488;-83
2023/05/17 05:25:12;;;;;;;22.03;12.13;;;;;;;20.90;70.13;94362.09;4979669;28;20450;-85
2023/05/17 05:27:39;;;;;;;19.70;10.63;;;;;;;20.93;70.55;94359.03;5016471;28;20551;-85
2023/05/17 05:30:07;;;;;;;25.40;13.07;;;;;;;20.35;71.86;94355.28;4978805;28;20458;-84
2023/05/17 05:32:36;;;;;;;21.73;11.07;;;;;;;20.54;73.60;94351.03;5013671;28;20541;-83
2023/05/17 05:35:04;;;;;;;23.57;11.47;;;;;;;20.55;71.57;94352.69;4980946;28;20914;-85
2023/05/17 05:37:31;;;;;;;15.93;10.60;;;;;;;20.56;72.08;94348.97;5034205;28;20452;-84
2023/05/17 05:39:58;;;;;;;14.20;10.90;;;;;;;20.56;72.22;94360.47;5012192;28;20505;-85
2023/05/17 05:42:28;;;;;;;19.63;10.73;;;;;;;20.35;74.64;94356.09;5011934;28;20487;-84
2023/05/17 05:44:55;;;;;;;16.90;10.20;;;;;;;20.59;71.79;94362.72;5012069;28;20983;-84
2023/05/17 05:47:21;;;;;;;17.20;11.40;;;;;;;20.79;72.04;94368.03;5011707;28;20943;-84
2023/05/17 05:49:48;;;;;;;13.07;10.43;;;;;;;20.62;72.37;94367.63;5012209;28;20447;-84
2023/05/17 05:52:15;;;;;;;21.27;12.33;;;;;;;20.57;73.42;94363.94;5012001;28;20499;-84
2023/05/17 05:54:42;;;;;;;27.57;12.63;;;;;;;20.45;72.91;94366.38;5011816;28;20486;-85
2023/05/17 05:57:08;;;;;;;21.23;12.37;;;;;;;20.80;72.51;94375.00;5012089;28;20454;-84
2023/05/17 05:59:37;;;;;;;20.77;12.40;;;;;;;20.67;72.61;94375.84;5012303;28;20853;-85
2023/05/17 06:02:04;;;;;;;14.93;10.80;;;;;;;20.03;75.52;94380.81;5012263;28;20459;-85
2023/05/17 06:04:32;;;;;;;13.00;9.10;;;;;;;19.21;77.97;94388.78;5011691;28;20445;-84
2023/05/17 06:06:59;;;;;;;20.43;12.43;;;;;;;18.65;81.08;94378.16;5012004;28;20436;-85
2023/05/17 06:09:26;;;;;;;14.60;11.80;;;;;;;18.46;82.32;94380.41;5012079;28;20450;-85
2023/05/17 06:11:53;;;;;;;17.43;11.60;;;;;;;18.09;84.75;94375.34;5012173;28;20469;-85
2023/05/17 06:14:20;;;;;;;17.63;12.50;;;;;;;17.84;86.86;94377.53;5012278;28;20593;-85
2023/05/17 06:16:48;;;;;;;16.53;13.37;;;;;;;18.12;87.11;94372.31;5011926;28;20432;-85
2023/05/17 06:19:15;;;;;;;18.40;11.00;;;;;;;17.67;88.21;94374.28;5011894;28;20447;-85
2023/05/17 06:21:42;;;;;;;17.50;11.60;;;;;;;17.66;88.80;94372.59;5012199;28;20928;-85
2023/05/17 06:24:09;;;;;;;16.77;10.70;;;;;;;17.38;90.03;94379.59;5014653;28;20455;-85
2023/05/17 06:26:36;;;;;;;28.70;12.97;;;;;;;16.94;91.63;94383.84;4980677;28;20450;-86
2023/05/17 06:29:03;;;;;;;18.63;11.80;;;;;;;16.84;93.10;94385.13;5015536;28;20498;-86
2023/05/17 06:31:30;;;;;;;19.00;10.70;;;;;;;16.76;94.42;94378.06;5015299;28;20507;-85
2023/05/17 06:33:58;;;;;;;17.73;10.57;;;;;;;16.99;93.24;94385.97;5015226;28;20451;-83
2023/05/17 06:36:25;;;;;;;17.80;12.33;;;;;;;17.18;93.95;94374.81;5016065;28;20773;-83
2023/05/17 06:38:52;;;;;;;22.87;12.37;;;;;;;17.33;94.13;94375.63;5015169;28;20500;-83
2023/05/17 06:41:18;;;;;;;17.50;13.07;;;;;;;17.38;93.10;94377.75;5015329;28;20448;-86
2023/05/17 06:43:45;;;;;;;17.57;11.67;;;;;;;17.41;93.38;94374.75;4980423;28;20441;-85
2023/05/17 06:46:12;;;;;;;18.53;12.53;;;;;;;17.26;93.10;94373.91;5015202;28;20800;-83
2023/05/17 06:48:39;;;;;;;19.07;12.53;;;;;;;17.14;93.65;94373.56;5014957;28;20962;-83
2023/05/17 06:51:07;;;;;;;22.67;14.13;;;;;;;17.24;94.99;94378.56;5015511;28;20453;-83
2023/05/17 06:53:34;;;;;;;18.47;13.80;;;;;;;17.18;95.17;94374.00;5015281;28;20449;-83
2023/05/17 06:56:00;;;;;;;25.93;11.83;;;;;;;17.23;94.88;94379.56;5014726;28;20846;-83
2023/05/17 06:58:27;;;;;;;24.97;14.67;;;;;;;17.10;95.43;94366.97;4980397;28;20443;-84
2023/05/17 07:00:54;;;;;;;22.27;14.80;;;;;;;17.19;95.90;94376.47;5014875;28;20443;-84
2023/05/17 07:03:20;;;;;;;19.93;12.13;;;;;;;17.03;96.68;94377.47;5015047;28;20453;-83
2023/05/17 07:05:47;;;;;;;27.67;13.70;;;;;;;17.01;97.45;94382.13;5015042;28;20451;-83
2023/05/17 07:08:15;;;;;;;19.17;12.70;;;;;;;16.91;98.32;94388.69;5014991;28;20444;-83
2023/05/17 07:10:42;;;;;;;22.37;12.33;;;;;;;16.86;97.47;94388.44;5014941;28;20840;-83
2023/05/17 07:13:09;;;;;;;19.20;13.40;;;;;;;16.77;98.17;94393.00;5014771;28;20493;-83
2023/05/17 07:15:35;;;;;;;24.97;15.10;;;;;;;16.95;99.20;94379.38;5014591;28;20479;-83
2023/05/17 07:18:02;;;;;;;25.00;13.87;;;;;;;17.08;98.78;94384.91;5014520;28;20447;-84
2023/05/17 07:20:29;;;;;;;24.10;14.30;;;;;;;17.19;98.67;94380.97;5014560;28;20458;-83
2023/05/17 07:22:56;;;;;;;20.77;13.43;;;;;;;17.12;98.28;94388.00;5014268;28;20452;-84
2023/05/17 07:25:24;;;;;;;26.90;14.30;;;;;;;17.19;98.63;94392.38;5014687;28;20829;-84
2023/05/17 07:27:51;;;;;;;23.60;13.60;;;;;;;17.32;98.18;94392.56;5014288;28;20448;-84
2023/05/17 07:30:17;;;;;;;24.10;13.07;;;;;;;17.46;97.54;94398.88;4979683;28;20501;-84
2023/05/17 07:32:44;;;;;;;18.57;12.57;;;;;;;17.41;96.95;94392.47;4979496;28;20441;-83
2023/05/17 07:35:11;;;;;;;22.67;13.80;;;;;;;17.56;97.18;94396.75;5013840;28;20492;-84
2023/05/17 07:37:37;;;;;;;18.20;12.50;;;;;;;17.48;96.24;94399.50;4979011;28;20449;-84
2023/05/17 07:40:05;;;;;;;19.33;12.30;;;;;;;17.55;96.25;94402.25;5014341;28;20510;-84
2023/05/17 07:42:34;;;;;;;21.60;12.73;;;;;;;17.52;96.41;94405.28;5014712;28;20445;-84
2023/05/17 07:45:00;;;;;;;16.37;13.20;;;;;;;17.49;95.62;94400.34;5014088;28;20445;-84
2023/05/17 07:47:27;;;;;;;20.13;10.67;;;;;;;17.27;96.42;94386.16;5014023;28;21010;-84
2023/05/17 07:49:54;;;;;;;20.13;12.50;;;;;;;17.24;96.99;94405.91;5014845;28;20770;-84
2023/05/17 07:52:21;;;;;;;19.20;12.40;;;;;;;17.33;96.84;94401.34;5014682;28;20448;-84
2023/05/17 07:54:47;;;;;;;17.57;11.33;;;;;;;17.29;96.66;94402.72;5013626;28;20492;-83
2023/05/17 07:57:14;;;;;;;22.40;12.37;;;;;;;17.28;96.89;94407.19;5014420;28;20499;-85
2023/05/17 07:59:42;;;;;;;21.57;12.00;;;;;;;17.13;98.27;94398.41;5014705;28;20452;-84
2023/05/17 08:02:09;;;;;;;19.53;12.97;;;;;;;17.08;97.72;94403.44;5014059;28;20503;-84
2023/05/17 08:04:36;;;;;;;29.00;13.67;;;;;;;17.32;97.90;94397.84;5013721;28;20842;-83
2023/05/17 08:07:03;;;;;;;19.90;11.90;;;;;;;17.41;96.54;94390.66;5014603;28;20468;-83
2023/05/17 08:09:30;;;;;;;20.97;10.73;;;;;;;17.12;97.12;94403.91;5014319;28;20443;-83
2023/05/17 08:11:56;;;;;;;23.70;12.60;;;;;;;17.30;97.81;94394.56;4980434;28;20447;-83
2023/05/17 08:14:25;;;;;;;21.57;12.03;;;;;;;17.50;96.81;94388.72;5014773;28;20450;-83
2023/05/17 08:16:53;;;;;;;22.43;15.10;;;;;;;17.65;95.96;94386.88;5015202;28;20444;-84
2023/05/17 08:19:20;;;;;;;19.40;11.10;;;;;;;17.91;95.23;94389.84;5014913;28;20922;-84
2023/05/17 08:21:48;;;;;;;17.63;12.47;;;;;;;18.08;93.73;94392.28;5015138;28;20435;-83
2023/05/17 08:24:16;;;;;;;16.60;11.30;;;;;;;18.21;92.48;94390.63;5015246;28;20433;-84
2023/05/17 08:26:43;;;;;;;16.17;11.17;;;;;;;18.19;91.28;94389.13;5014702;28;20525;-84
2023/05/17 08:29:09;;;;;;;27.30;10.67;;;;;;;18.43;92.03;94379.97;5015115;28;20454;-83
2023/05/17 08:31:36;;;;;;;25.40;11.07;;;;;;;18.63;90.26;94385.50;5014807;28;20834;-84
2023/05/17 08:34:04;;;;;;;22.93;11.20;;;;;;;18.80;89.03;94381.56;5014500;28;20447;-83
2023/05/17 08:36:31;;;;;;;16.37;10.80;;;;;;;18.90;88.50;94392.69;5014162;28;21131;-84
2023/05/17 08:38:58;;;;;;;15.37;9.83;;;;;;;19.01;87.43;94391.31;5014165;28;20443;-84
2023/05/17 08:41:24;;;;;;;16.17;10.90;;;;;;;19.01;86.90;94394.78;5014625;28;20438;-84
2023/05/17 08:43:52;;;;;;;20.60;10.97;;;;;;;19.02;86.96;94396.44;5014228;28;20447;-84
2023/05/17 08:46:20;;;;;;;14.80;10.50;;;;;;;18.82;86.98;94387.50;4995667;28;20440;-85
2023/05/17 08:48:50;;;;;;;25.80;9.97;;;;;;;18.66;86.97;94391.25;5014068;28;20451;-85
2023/05/17 08:51:19;;;;;;;20.80;10.47;;;;;;;18.43;89.34;94380.78;5014157;28;21158;-85
2023/05/17 08:53:46;;;;;;;14.43;9.43;;;;;;;18.26;90.20;94374.94;5013979;28;21156;-85
2023/05/17 08:56:17;;;;;;;19.03;10.60;;;;;;;18.37;89.79;94381.56;5013899;28;20483;-85
2023/05/17 08:58:47;;;;;;;13.87;8.27;;;;;;;18.45;89.72;94389.38;5014409;28;20514;-85
2023/05/17 09:01:14;;;;;;;19.37;9.57;;;;;;;18.40;88.49;94380.34;5013813;28;20830;-85
2023/05/17 09:03:42;;;;;;;19.57;10.07;;;;;;;18.38;89.66;94385.03;5013924;28;20456;-85
2023/05/17 09:06:11;;;;;;;20.37;11.50;;;;;;;18.36;90.79;94387.88;5014238;28;20450;-85
2023/05/17 09:08:39;;;;;;;19.17;11.87;;;;;;;18.19;94.49;94367.88;5014369;28;20536;-84
2023/05/17 09:11:06;;;;;;;20.97;12.00;;;;;;;18.29;94.55;94371.06;5013910;28;20439;-85
2023/05/17 09:13:33;;;;;;;21.87;11.23;;;;;;;18.14;94.78;94367.63;5014082;28;20470;-85
2023/05/17 09:15:59;;;;;;;17.70;11.90;;;;;;;18.19;95.71;94368.69;5013571;28;20509;-85
2023/05/17 09:18:30;;;;;;;19.10;12.77;;;;;;;18.35;96.46;94374.78;5013840;28;20449;-83
2023/05/17 09:21:02;;;;;;;19.20;12.63;;;;;;;18.27;95.45;94373.91;5013780;28;20524;-83
2023/05/17 09:23:31;;;;;;;24.97;12.90;;;;;;;18.32;94.66;94369.88;5014204;28;20518;-83
2023/05/17 09:26:06;;;;;;;23.20;12.33;;;;;;;18.34;95.99;94376.63;5014176;28;21276;-84
2023/05/17 09:28:42;;;;;;;18.17;11.60;;;;;;;18.18;95.23;94372.38;5016187;28;20457;-83
2023/05/17 09:31:12;;;;;;;23.00;13.30;;;;;;;18.22;94.01;94368.34;5013427;28;20489;-83
2023/05/17 09:33:45;;;;;;;17.80;11.80;;;;;;;18.40;93.26;94369.72;4978525;28;20468;-83
2023/05/17 09:36:17;;;;;;;14.57;11.00;;;;;;;18.44;92.30;94377.13;5012382;28;20483;-83
2023/05/17 09:38:44;;;;;;;18.77;12.07;;;;;;;18.62;93.81;94378.50;5012391;28;20558;-84
2023/05/17 09:41:12;;;;;;;25.43;12.37;;;;;;;18.70;93.95;94389.03;5011931;28;20440;-83
2023/05/17 09:43:39;;;;;;;18.80;12.03;;;;;;;18.81;92.66;94385.88;5012285;28;20443;-84
2023/05/17 09:46:06;;;;;;;16.97;10.20;;;;;;;18.91;89.95;94389.00;5011875;28;20461;-84
2023/05/17 09:48:32;;;;;;;17.93;9.17;;;;;;;18.85;89.16;94395.09;5012616;28;20454;-84
2023/05/17 09:51:00;;;;;;;11.97;9.30;;;;;;;18.99;88.12;94396.81;5012281;28;20996;-84
2023/05/17 09:53:28;;;;;;;19.83;9.33;;;;;;;18.95;88.21;94394.75;5012624;28;20522;-84
2023/05/17 09:55:57;;;;;;;18.37;8.73;;;;;;;18.73;89.48;94393.97;5012146;28;20564;-84
2023/05/17 09:58:27;;;;;;;14.37;8.57;;;;;;;18.73;87.97;94388.63;5015371;28;20490;-83
2023/05/17 10:00:56;;;;;;;18.57;9.30;;;;;;;18.55;89.08;94379.28;5016056;28;20455;-84
2023/05/17 10:03:23;;;;;;;20.23;9.70;;;;;;;18.44;89.93;94377.13;5017444;28;20431;-86
2023/05/17 10:05:52;;;;;;;18.60;10.13;;;;;;;18.50;90.91;94381.69;5016326;28;20453;-84
2023/05/17 10:08:24;;;;;;;21.87;9.43;;;;;;;18.58;89.18;94383.38;5017462;28;20214;-84
2023/05/17 10:10:55;;;;;;;16.37;9.27;;;;;;;18.79;91.19;94383.41;5017253;28;20437;-81
2023/05/17 10:13:24;;;;;;;18.13;10.60;;;;;;;18.94;91.00;94379.81;5017643;28;20568;-83
2023/05/17 10:15:53;;;;;;;15.10;9.33;;;;;;;19.11;89.55;94374.00;5016830;28;20500;-82
2023/05/17 10:18:21;;;;;;;16.57;8.10;;;;;;;19.24;87.14;94367.13;5017269;28;20452;-82
2023/05/17 10:20:48;;;;;;;10.13;8.03;;;;;;;19.43;86.26;94361.09;5016727;28;20960;-82
2023/05/17 10:23:17;;;;;;;15.17;6.90;;;;;;;19.64;84.22;94358.34;5016982;28;20501;-82
2023/05/17 10:25:45;;;;;;;13.20;8.73;;;;;;;19.52;84.25;94345.78;5016978;28;20501;-84
2023/05/17 10:28:15;;;;;;;13.70;9.07;;;;;;;19.25;87.17;94339.50;5016780;28;20447;-85
2023/05/17 10:30:43;;;;;;;15.57;9.93;;;;;;;19.10;88.50;94321.03;5016825;28;20504;-85
2023/05/17 10:33:13;;;;;;;16.30;10.20;;;;;;;19.16;88.75;94313.06;5016570;28;20452;-84
2023/05/17 10:35:41;;;;;;;18.63;9.57;;;;;;;19.30;89.49;94305.13;4982093;28;20560;-83
2023/05/17 10:38:07;;;;;;;24.63;10.00;;;;;;;19.04;88.65;94309.31;5016410;28;20451;-85
2023/05/17 10:40:36;;;;;;;26.93;9.80;;;;;;;19.00;89.38;94284.13;5016582;28;20448;-85
2023/05/17 10:43:05;;;;;;;17.43;9.13;;;;;;;18.97;89.40;94286.34;5016809;28;20510;-84
2023/05/17 10:45:32;;;;;;;19.67;8.37;;;;;;;18.88;88.86;94273.22;5016729;28;20451;-84
2023/05/17 10:48:04;;;;;;;16.37;9.60;;;;;;;18.94;89.47;94265.47;5016237;28;20513;-83
2023/05/17 10:50:32;;;;;;;12.60;8.20;;;;;;;18.87;89.53;94262.78;5016446;28;20496;-83
2023/05/17 10:52:59;;;;;;;13.83;7.07;;;;;;;18.64;89.51;94252.44;5016233;28;20498;-83
2023/05/17 10:55:38;;;;;;;14.53;8.97;;;;;;;18.65;90.09;94237.31;5016126;28;20467;-84
2023/05/17 10:58:18;;;;;;;13.00;8.43;;;;;;;18.51;89.71;94234.53;5015675;28;20508;-83
2023/05/17 11:00:47;;;;;;;18.20;9.27;;;;;;;18.48;90.71;94228.78;5016175;28;20462;-84
2023/05/17 11:03:15;;;;;;;13.17;7.27;;;;;;;18.42;89.80;94235.69;5015955;28;20442;-83
2023/05/17 11:05:45;;;;;;;12.73;7.00;;;;;;;18.43;88.35;94229.34;5016099;28;20455;-84
2023/05/17 11:08:14;;;;;;;9.90;6.67;;;;;;;18.32;89.61;94224.59;5015604;28;20450;-84
2023/05/17 11:11:08;;;;;;;13.30;7.23;;;;;;;18.40;90.73;94237.72;5015279;28;20530;-82
2023/05/17 11:13:35;;;;;;;19.20;9.90;;;;;;;18.18;93.83;94236.09;5016136;28;21042;-84
2023/05/17 11:16:07;;;;;;;21.63;10.03;;;;;;;18.22;95.55;94240.88;5015038;28;20576;-83
2023/05/17 11:18:47;;;;;;;15.93;9.43;;;;;;;18.29;95.59;94248.88;5014734;28;20446;-83
2023/05/17 11:21:16;;;;;;;21.63;9.93;;;;;;;18.34;93.80;94256.28;5014357;28;20780;-83
2023/05/17 11:23:44;;;;;;;21.90;9.00;;;;;;;18.55;94.70;94259.69;5014702;28;20443;-83
2023/05/17 11:26:21;;;;;;;21.73;9.10;;;;;;;18.57;94.57;94262.97;4996299;28;20554;-83
2023/05/17 11:28:48;;;;;;;21.27;8.10;;;;;;;18.61;93.37;94274.03;5014497;28;20523;-83
2023/05/17 11:31:15;;;;;;;20.43;9.30;;;;;;;18.53;92.13;94276.84;5014579;28;20443;-83
2023/05/17 11:33:44;;;;;;;18.37;8.70;;;;;;;18.61;91.57;94287.34;4979407;28;20448;-83
2023/05/17 11:36:19;;;;;;;13.53;8.40;;;;;;;18.72;92.14;94291.31;5014317;28;20496;-83
2023/05/17 11:38:49;;;;;;;10.17;6.97;;;;;;;18.56;89.93;94309.19;5014101;28;20458;-83